首页
METAR-TAF:

METAR-TAF

机场 :

Valdez, 阿拉斯加州, 美国

纬度: 61-08N, 经度: 146-16W, 海拔: 37米

当前天气观测

该预报发布于51分钟前的19:56 UTC
风速3节,风向西转西北
温度 10°C
湿度 76%
气压 1006 hPa
能見度: 16.1公里
少量云层高于1600英尺
多云层高于9000英尺
多云层高于15000英尺

METAR: PAVD 261956Z 30003KT 10SM FEW016 BKN090 BKN150 10/06 A2972 RMK AO2 SLP061 T01000056 $

时间: 12:47 (20:47 UTC)

预报

该预报发布于3小时和22分钟前的17:25 UTC
预报有效从26日的 18点(UTC)到 27日的 18点(UTC)
风速6节,风向西转西南
能見度: 9.7公里
散云层高于600英尺
多云层高于4000英尺
阴天层高于8000英尺
小雨, 轻雾
从 26日的 2100点(UTC)
风速6节,风向西转西南
能見度: 10公里
多云层高于4000英尺
阴天层高于10000英尺
附近有阵雨
从 27日的 0000点(UTC)
风速8节,风向西转西南
能見度: 10公里
多云层高于5000英尺
多云层高于10000英尺
多云层高于20000英尺
从 27日的 0600点(UTC)
风速4节,风向多变
能見度: 10公里
多云层高于3500英尺
阴天层高于5000英尺
附近有阵雨
从 27日的 0900点(UTC)
风速4节,风向多变
能見度: 10公里
多云层高于2500英尺
阴天层高于3500英尺
小阵雨,

TAF: PAVD 261725Z 2618/2718 24006KT 6SM -RA BR SCT006 BKN040 OVC080 FM262100 24006KT P6SM VCSH BKN040 OVC100 FM270000 24008KT P6SM BKN050 BKN100 BKN200 FM270600 VRB04KT P6SM VCSH BKN035 OVC050 FM270900 VRB04KT P6SM -SHRA BKN025 OVC035

超过4000个机场的气象观测和天气预报(METAR&TAF报告)。

可查询的气象台以黄色和红色小点在地图上表示。

将鼠标移到小点上方,可查看气象台名称。

然后点击查看天气观测和预报。

如需切换地图:点击带黑十字的绿色按钮放大地图;点击带横线的绿色按钮缩小地图;或者点击绿色箭头查看邻近地区的地图。


METAR-TAF: